Time;durP1;ratioP1;P1;durP2;ratioP2;P2;SDS_P1;SDS_P2;PMS_P1;PMS_P2;Temp;Humidity;BMP_temperature;BMP_pressure;BME280_temperature;BME280_humidity;BME280_pressure;Samples;Min_cycle;Max_cycle;Signal;HPM_P1;HPM_P2
2023/07/12 00:00:42;;;;;;;4.15;2.92;;;;;;;;;;7300254;19;142850;-84
2023/07/12 00:03:10;;;;;;;3.38;3.03;;;;;;;;;;7302034;19;140385;-83
2023/07/12 00:05:37;;;;;;;3.50;3.20;;;;;;;;;;7301548;19;140864;-85
2023/07/12 00:08:05;;;;;;;3.55;3.25;;;;;;;;;;7302111;19;140723;-85
2023/07/12 00:10:33;;;;;;;3.00;2.80;;;;;;;;;;7300750;19;142049;-83
2023/07/12 00:13:01;;;;;;;3.65;3.33;;;;;;;;;;7301124;19;140544;-83
2023/07/12 00:15:30;;;;;;;3.30;3.00;;;;;;;;;;7301666;19;140553;-85
2023/07/12 00:17:57;;;;;;;3.70;3.10;;;;;;;;;;7301501;19;141069;-85
2023/07/12 00:20:35;;;;;;;3.35;3.05;;;;;;;;;;7300831;19;141511;-83
2023/07/12 00:23:02;;;;;;;3.00;2.58;;;;;;;;;;7301447;19;141154;-86
2023/07/12 00:25:30;;;;;;;3.45;2.80;;;;;;;;;;7301664;19;140626;-87
2023/07/12 00:27:58;;;;;;;3.13;2.83;;;;;;;;;;7300447;19;141251;-85
2023/07/12 00:30:30;;;;;;;2.80;2.60;;;;;;;;;;7301534;19;140682;-85
2023/07/12 00:33:02;;;;;;;3.50;3.20;;;;;;;;;;7301570;19;140629;-85
2023/07/12 00:35:30;;;;;;;2.85;2.65;;;;;;;;;;7301381;19;140564;-81
2023/07/12 00:38:00;;;;;;;3.15;2.85;;;;;;;;;;7301078;19;141827;-83
2023/07/12 00:40:30;;;;;;;4.38;2.95;;;;;;;;;;7300402;19;142035;-83
2023/07/12 00:43:01;;;;;;;3.42;3.13;;;;;;;;;;7300560;19;140539;-82
2023/07/12 00:45:29;;;;;;;3.58;3.10;;;;;;;;;;7300968;19;142489;-82
2023/07/12 00:47:57;;;;;;;3.47;2.92;;;;;;;;;;7300461;19;141329;-83
2023/07/12 00:50:24;;;;;;;3.13;2.85;;;;;;;;;;7300611;19;142350;-83
2023/07/12 00:52:51;;;;;;;2.85;2.65;;;;;;;;;;7300652;19;141970;-81
2023/07/12 00:55:36;;;;;;;3.75;2.78;;;;;;;;;;7300364;19;140669;-82
2023/07/12 00:58:03;;;;;;;2.90;2.60;;;;;;;;;;7299539;19;141195;-83
2023/07/12 01:00:30;;;;;;;3.10;2.80;;;;;;;;;;7299792;19;141877;-84
2023/07/12 01:02:59;;;;;;;3.13;2.83;;;;;;;;;;7299961;19;140438;-84
2023/07/12 01:05:26;;;;;;;3.08;2.78;;;;;;;;;;7301524;19;140581;-84
2023/07/12 01:07:53;;;;;;;3.28;2.60;;;;;;;;;;7306628;19;141293;-84
2023/07/12 01:10:20;;;;;;;2.85;2.65;;;;;;;;;;7307584;19;142135;-84
2023/07/12 01:12:48;;;;;;;2.85;2.58;;;;;;;;;;7307205;19;140502;-84
2023/07/12 01:15:15;;;;;;;2.88;2.60;;;;;;;;;;7304968;19;140886;-84
2023/07/12 01:17:43;;;;;;;2.88;2.65;;;;;;;;;;7307550;19;140695;-84
2023/07/12 01:20:10;;;;;;;2.60;2.40;;;;;;;;;;7305578;19;140960;-83
2023/07/12 01:22:37;;;;;;;3.08;2.78;;;;;;;;;;7306664;19;140781;-84
2023/07/12 01:25:04;;;;;;;2.78;2.50;;;;;;;;;;7305458;19;140612;-84
2023/07/12 01:27:31;;;;;;;3.65;2.78;;;;;;;;;;7305900;19;141160;-84
2023/07/12 01:29:58;;;;;;;3.05;2.75;;;;;;;;;;7306403;19;142792;-84
2023/07/12 01:32:26;;;;;;;2.85;2.65;;;;;;;;;;7305564;19;140586;-82
2023/07/12 01:34:53;;;;;;;2.63;2.42;;;;;;;;;;7306136;19;140535;-83
2023/07/12 01:37:21;;;;;;;4.03;2.67;;;;;;;;;;7305583;19;141585;-83
2023/07/12 01:39:48;;;;;;;2.92;2.58;;;;;;;;;;7306159;19;141479;-83
2023/07/12 01:42:15;;;;;;;2.83;2.63;;;;;;;;;;7305431;19;140707;-84
2023/07/12 01:44:42;;;;;;;2.75;2.55;;;;;;;;;;7305946;19;140604;-86
2023/07/12 01:47:09;;;;;;;2.92;2.60;;;;;;;;;;7304608;19;141641;-82
2023/07/12 01:49:36;;;;;;;2.85;2.65;;;;;;;;;;7305620;19;141759;-80
2023/07/12 01:52:04;;;;;;;2.80;2.22;;;;;;;;;;7306001;19;141009;-81
2023/07/12 01:54:31;;;;;;;3.03;2.70;;;;;;;;;;7306072;19;140592;-82
2023/07/12 01:56:58;;;;;;;3.22;2.40;;;;;;;;;;7304901;19;141934;-80
2023/07/12 01:59:25;;;;;;;2.70;2.50;;;;;;;;;;7306561;19;141501;-81
2023/07/12 02:01:54;;;;;;;2.75;2.45;;;;;;;;;;7305965;19;140993;-79
2023/07/12 02:04:21;;;;;;;2.70;2.50;;;;;;;;;;7310721;19;140550;-80
2023/07/12 02:06:48;;;;;;;2.80;2.60;;;;;;;;;;7312211;19;140582;-80
2023/07/12 02:09:15;;;;;;;2.50;2.30;;;;;;;;;;7307152;19;140790;-81
2023/07/12 02:11:42;;;;;;;3.47;2.47;;;;;;;;;;7305834;19;140658;-81
2023/07/12 02:14:09;;;;;;;2.70;2.50;;;;;;;;;;7305668;19;141830;-81
2023/07/12 02:16:36;;;;;;;2.53;2.33;;;;;;;;;;7305029;19;140778;-82
2023/07/12 02:19:03;;;;;;;2.92;2.63;;;;;;;;;;7302251;19;141902;-81
2023/07/12 02:21:30;;;;;;;2.70;2.50;;;;;;;;;;7305970;19;140575;-81
2023/07/12 02:23:58;;;;;;;2.45;2.25;;;;;;;;;;7305398;19;140400;-79
2023/07/12 02:26:25;;;;;;;2.53;2.30;;;;;;;;;;7305121;19;141681;-81
2023/07/12 02:28:52;;;;;;;2.63;2.42;;;;;;;;;;7304405;19;142543;-81
2023/07/12 02:31:20;;;;;;;3.22;2.38;;;;;;;;;;7305730;19;140416;-81
2023/07/12 02:33:48;;;;;;;2.92;2.50;;;;;;;;;;7305056;19;140666;-81
2023/07/12 02:36:16;;;;;;;2.78;2.40;;;;;;;;;;7305336;19;140477;-82
2023/07/12 02:38:43;;;;;;;2.90;2.40;;;;;;;;;;7303384;19;142592;-86
2023/07/12 02:41:10;;;;;;;2.65;2.30;;;;;;;;;;7304658;19;140623;-85
2023/07/12 02:43:38;;;;;;;2.60;2.40;;;;;;;;;;7304120;19;140489;-84
2023/07/12 02:46:05;;;;;;;2.90;2.42;;;;;;;;;;7303772;19;141004;-85
2023/07/12 02:48:32;;;;;;;2.40;2.20;;;;;;;;;;7304064;19;142174;-86
2023/07/12 02:50:59;;;;;;;3.03;2.40;;;;;;;;;;7304266;19;140357;-87
2023/07/12 02:53:28;;;;;;;3.10;2.70;;;;;;;;;;7304556;19;140581;-87
2023/07/12 02:55:55;;;;;;;2.70;2.22;;;;;;;;;;7304025;19;141221;-87
2023/07/12 02:58:22;;;;;;;2.67;2.47;;;;;;;;;;7304259;19;141208;-88
2023/07/12 03:00:55;;;;;;;2.63;2.42;;;;;;;;;;7304180;19;140482;-87
2023/07/12 03:03:22;;;;;;;3.65;2.45;;;;;;;;;;7304712;19;140951;-86
2023/07/12 03:05:49;;;;;;;4.72;2.50;;;;;;;;;;7303731;19;141719;-86
2023/07/12 03:08:16;;;;;;;2.60;2.40;;;;;;;;;;7304345;19;141776;-87
2023/07/12 03:10:43;;;;;;;2.60;2.40;;;;;;;;;;7304034;19;140446;-87
2023/07/12 03:13:10;;;;;;;3.65;2.28;;;;;;;;;;7303287;19;140690;-86
2023/07/12 03:15:37;;;;;;;2.53;2.28;;;;;;;;;;7303440;19;140524;-86
2023/07/12 03:18:05;;;;;;;2.30;2.10;;;;;;;;;;7303573;19;141979;-89
2023/07/12 03:20:32;;;;;;;2.38;2.17;;;;;;;;;;7303500;19;141068;-85
2023/07/12 03:23:00;;;;;;;2.60;2.40;;;;;;;;;;7303155;19;140571;-84
2023/07/12 03:25:27;;;;;;;2.55;2.35;;;;;;;;;;7303937;19;141150;-84
2023/07/12 03:27:54;;;;;;;2.50;2.30;;;;;;;;;;7302374;19;142005;-84
2023/07/12 03:30:21;;;;;;;2.47;2.28;;;;;;;;;;7302034;19;140702;-84
2023/07/12 03:32:48;;;;;;;2.28;2.08;;;;;;;;;;7303452;19;140659;-83
2023/07/12 03:35:16;;;;;;;2.40;2.20;;;;;;;;;;7302307;19;141202;-83
2023/07/12 03:37:43;;;;;;;2.60;2.40;;;;;;;;;;7303278;19;140939;-83
2023/07/12 03:40:11;;;;;;;2.53;2.20;;;;;;;;;;7302954;19;140689;-85
2023/07/12 03:42:38;;;;;;;2.58;2.38;;;;;;;;;;7301965;19;140364;-84
2023/07/12 03:45:05;;;;;;;2.60;2.40;;;;;;;;;;7302506;19;141919;-84
2023/07/12 03:47:32;;;;;;;2.65;2.45;;;;;;;;;;7302956;19;142064;-83
2023/07/12 03:49:59;;;;;;;2.70;2.40;;;;;;;;;;7302007;19;140541;-82
2023/07/12 03:52:26;;;;;;;2.70;2.50;;;;;;;;;;7302506;19;140727;-83
2023/07/12 03:54:53;;;;;;;3.67;2.58;;;;;;;;;;7300553;19;140957;-83
2023/07/12 03:57:21;;;;;;;2.95;2.40;;;;;;;;;;7301685;19;142776;-83
2023/07/12 03:59:48;;;;;;;2.50;2.30;;;;;;;;;;7300157;19;140695;-83
2023/07/12 04:02:15;;;;;;;2.50;2.28;;;;;;;;;;7302505;19;140425;-86
2023/07/12 04:04:42;;;;;;;3.50;2.40;;;;;;;;;;7301711;19;141323;-86
2023/07/12 04:07:09;;;;;;;3.47;2.58;;;;;;;;;;7299079;19;141914;-84
2023/07/12 04:09:36;;;;;;;2.58;2.38;;;;;;;;;;7302261;19;140710;-84
2023/07/12 04:12:04;;;;;;;2.58;2.38;;;;;;;;;;7301451;19;140687;-83
2023/07/12 04:14:31;;;;;;;2.65;2.45;;;;;;;;;;7300473;19;141863;-82
2023/07/12 04:16:58;;;;;;;2.40;2.20;;;;;;;;;;7301829;19;141885;-83
2023/07/12 04:19:25;;;;;;;2.90;2.63;;;;;;;;;;7301443;19;141413;-84
2023/07/12 04:21:52;;;;;;;2.88;2.60;;;;;;;;;;7301680;19;140538;-86
2023/07/12 04:24:19;;;;;;;2.40;2.17;;;;;;;;;;7300864;19;141372;-85
2023/07/12 04:26:48;;;;;;;2.45;2.25;;;;;;;;;;7300736;19;143102;-84
2023/07/12 04:29:15;;;;;;;2.28;2.03;;;;;;;;;;7300358;19;141554;-84
2023/07/12 04:31:42;;;;;;;2.85;2.38;;;;;;;;;;7301251;19;140881;-75
2023/07/12 04:34:09;;;;;;;2.40;2.20;;;;;;;;;;7299978;19;141576;-75
2023/07/12 04:36:38;;;;;;;2.28;2.08;;;;;;;;;;7299648;19;141925;-74
2023/07/12 04:39:05;;;;;;;2.13;2.03;;;;;;;;;;7300266;19;140898;-74
2023/07/12 04:41:32;;;;;;;2.58;2.38;;;;;;;;;;7300010;19;140578;-75
2023/07/12 04:44:01;;;;;;;2.50;2.30;;;;;;;;;;7299924;19;141098;-80
2023/07/12 04:46:28;;;;;;;2.45;2.25;;;;;;;;;;7300464;19;142418;-78
2023/07/12 04:48:58;;;;;;;2.30;2.10;;;;;;;;;;7299519;19;140726;-80
2023/07/12 04:51:25;;;;;;;2.92;2.42;;;;;;;;;;7300993;19;140543;-80
2023/07/12 04:53:52;;;;;;;2.53;2.33;;;;;;;;;;7300207;19;141011;-79
2023/07/12 04:56:19;;;;;;;3.13;2.30;;;;;;;;;;7298963;19;141147;-81
2023/07/12 04:58:46;;;;;;;2.58;2.35;;;;;;;;;;7300075;19;140586;-79
2023/07/12 05:01:13;;;;;;;2.95;2.38;;;;;;;;;;7299976;19;140421;-81
2023/07/12 05:03:40;;;;;;;2.40;2.20;;;;;;;;;;7300283;19;141171;-80
2023/07/12 05:06:08;;;;;;;2.30;2.10;;;;;;;;;;7299843;19;141908;-80
2023/07/12 05:08:49;;;;;;;2.40;2.20;;;;;;;;;;7301076;19;140522;-80
2023/07/12 05:11:16;;;;;;;2.20;2.00;;;;;;;;;;7300505;19;140550;-82
2023/07/12 05:13:43;;;;;;;2.50;2.30;;;;;;;;;;7299378;19;141969;-86
2023/07/12 05:16:13;;;;;;;2.40;2.20;;;;;;;;;;7300067;19;141347;-87
2023/07/12 05:18:40;;;;;;;2.63;2.42;;;;;;;;;;7299211;19;140596;-85
2023/07/12 05:21:08;;;;;;;2.38;2.20;;;;;;;;;;7299946;19;140480;-81
2023/07/12 05:23:36;;;;;;;2.53;2.30;;;;;;;;;;7299198;19;141106;-82
2023/07/12 05:26:03;;;;;;;2.50;2.30;;;;;;;;;;7299664;19;142502;-82
2023/07/12 05:28:31;;;;;;;3.20;2.22;;;;;;;;;;7299386;19;140586;-81
2023/07/12 05:30:58;;;;;;;2.20;2.00;;;;;;;;;;7299648;19;140367;-81
2023/07/12 05:33:25;;;;;;;2.60;1.90;;;;;;;;;;7299164;19;140820;-81
2023/07/12 05:35:52;;;;;;;2.90;2.10;;;;;;;;;;7298528;19;142018;-81
2023/07/12 05:38:19;;;;;;;2.10;1.90;;;;;;;;;;7299181;19;140476;-82
2023/07/12 05:40:46;;;;;;;2.58;2.20;;;;;;;;;;7298990;19;140451;-81
2023/07/12 05:43:13;;;;;;;2.42;2.22;;;;;;;;;;7298362;19;141672;-82
2023/07/12 05:45:40;;;;;;;2.30;2.10;;;;;;;;;;7299132;19;142410;-82
2023/07/12 05:48:07;;;;;;;2.80;2.10;;;;;;;;;;7299943;19;140495;-90
2023/07/12 05:50:35;;;;;;;2.80;2.30;;;;;;;;;;7300212;19;140579;-87
2023/07/12 05:53:02;;;;;;;3.10;2.20;;;;;;;;;;7302088;19;141538;-87
2023/07/12 05:55:31;;;;;;;2.50;2.30;;;;;;;;;;7305748;19;141875;-87
2023/07/12 05:57:58;;;;;;;2.58;2.30;;;;;;;;;;7306808;19;140545;-90
2023/07/12 06:00:29;;;;;;;2.15;1.95;;;;;;;;;;7306930;19;140551;-88
2023/07/12 06:02:56;;;;;;;3.13;2.38;;;;;;;;;;7306880;19;141933;-88
2023/07/12 06:05:23;;;;;;;3.30;2.30;;;;;;;;;;7305680;19;143284;-87
2023/07/12 06:07:51;;;;;;;2.45;2.25;;;;;;;;;;7306930;19;140684;-88
2023/07/12 06:10:18;;;;;;;2.45;2.25;;;;;;;;;;7307233;19;140379;-91
2023/07/12 06:12:45;;;;;;;2.95;2.38;;;;;;;;;;7309009;19;140990;-92
2023/07/12 06:15:12;;;;;;;2.65;2.40;;;;;;;;;;7308600;19;142013;-92
2023/07/12 06:17:40;;;;;;;2.60;2.40;;;;;;;;;;7308086;19;140438;-92
2023/07/12 06:20:07;;;;;;;3.80;2.50;;;;;;;;;;7307395;19;140366;-89
2023/07/12 06:22:35;;;;;;;2.80;2.30;;;;;;;;;;7305887;19;141788;-89
2023/07/12 06:25:02;;;;;;;3.17;2.33;;;;;;;;;;7305868;19;141811;-90
2023/07/12 06:27:29;;;;;;;2.72;2.33;;;;;;;;;;7305483;19;140600;-90
2023/07/12 06:29:56;;;;;;;2.92;2.40;;;;;;;;;;7305553;19;140589;-88
2023/07/12 06:32:24;;;;;;;2.40;2.20;;;;;;;;;;7306477;19;141214;-90
2023/07/12 06:34:51;;;;;;;2.60;2.40;;;;;;;;;;7305833;19;141805;-90
2023/07/12 06:37:18;;;;;;;3.30;2.58;;;;;;;;;;7305252;19;140794;-89
2023/07/12 06:39:46;;;;;;;3.95;2.60;;;;;;;;;;7306737;19;140586;-90
2023/07/12 06:42:13;;;;;;;2.63;2.42;;;;;;;;;;7305345;19;141084;-89
2023/07/12 06:44:40;;;;;;;3.03;2.38;;;;;;;;;;7303412;19;142258;-90
2023/07/12 06:47:07;;;;;;;4.00;2.60;;;;;;;;;;7304436;19;141882;-77
2023/07/12 06:49:34;;;;;;;4.45;2.70;;;;;;;;;;7305341;19;140582;-79
2023/07/12 06:52:02;;;;;;;2.50;2.30;;;;;;;;;;7303537;19;141748;-79
2023/07/12 06:54:29;;;;;;;2.95;2.67;;;;;;;;;;7303920;19;142003;-79
2023/07/12 06:56:58;;;;;;;3.08;2.50;;;;;;;;;;7303585;19;140908;-78
2023/07/12 06:59:25;;;;;;;2.70;2.50;;;;;;;;;;7302696;19;140683;-79
2023/07/12 07:01:52;;;;;;;3.55;2.97;;;;;;;;;;7303604;19;141451;-79
2023/07/12 07:04:20;;;;;;;3.13;2.50;;;;;;;;;;7302108;19;140718;-81
2023/07/12 07:06:47;;;;;;;3.15;2.45;;;;;;;;;;7303004;19;140513;-80
2023/07/12 07:09:15;;;;;;;2.95;2.65;;;;;;;;;;7303968;19;140797;-80
2023/07/12 07:11:43;;;;;;;3.47;2.80;;;;;;;;;;7303185;19;141385;-80
2023/07/12 07:14:10;;;;;;;3.72;2.70;;;;;;;;;;7302199;19;141978;-81
2023/07/12 07:16:37;;;;;;;2.58;2.38;;;;;;;;;;7303613;19;140895;-80
2023/07/12 07:19:04;;;;;;;3.50;3.03;;;;;;;;;;7301900;19;140906;-80
2023/07/12 07:21:32;;;;;;;3.10;2.78;;;;;;;;;;7303073;19;140832;-80
2023/07/12 07:23:59;;;;;;;2.75;2.50;;;;;;;;;;7302823;19;142146;-80
2023/07/12 07:26:26;;;;;;;3.22;2.72;;;;;;;;;;7303428;19;140649;-80
2023/07/12 07:28:54;;;;;;;3.05;2.75;;;;;;;;;;7301035;19;140729;-81
2023/07/12 07:31:21;;;;;;;2.78;2.58;;;;;;;;;;7303013;19;140579;-81
2023/07/12 07:33:48;;;;;;;3.00;2.70;;;;;;;;;;7302755;19;141854;-80
2023/07/12 07:36:15;;;;;;;3.92;2.83;;;;;;;;;;7302684;19;140618;-80
2023/07/12 07:38:42;;;;;;;2.97;2.78;;;;;;;;;;7302459;19;140684;-83
2023/07/12 07:41:11;;;;;;;3.38;3.08;;;;;;;;;;7300525;19;141275;-82
2023/07/12 07:43:41;;;;;;;3.63;2.80;;;;;;;;;;7302656;19;142524;-82
2023/07/12 07:46:08;;;;;;;2.60;2.40;;;;;;;;;;7301913;19;140563;-82
2023/07/12 07:48:36;;;;;;;3.72;2.75;;;;;;;;;;7302104;19;140564;-83
2023/07/12 07:51:03;;;;;;;2.97;2.67;;;;;;;;;;7302323;19;141105;-80
2023/07/12 07:53:32;;;;;;;3.13;2.75;;;;;;;;;;7302201;19;142017;-80
2023/07/12 07:55:59;;;;;;;3.10;2.72;;;;;;;;;;7301760;19;140725;-79
2023/07/12 07:58:26;;;;;;;2.88;2.55;;;;;;;;;;7302243;19;140530;-79
2023/07/12 08:00:53;;;;;;;2.60;2.40;;;;;;;;;;7301074;19;141205;-79
2023/07/12 08:03:20;;;;;;;3.17;2.80;;;;;;;;;;7300119;19;140764;-80
2023/07/12 08:05:48;;;;;;;3.17;2.50;;;;;;;;;;7301820;19;140573;-78
2023/07/12 08:08:15;;;;;;;4.15;3.45;;;;;;;;;;7302382;19;140605;-79
2023/07/12 08:10:42;;;;;;;3.20;2.90;;;;;;;;;;7301250;19;140877;-80
2023/07/12 08:13:12;;;;;;;3.50;3.10;;;;;;;;;;7301044;19;142190;-80
2023/07/12 08:15:40;;;;;;;2.90;2.40;;;;;;;;;;7298291;19;140504;-80
2023/07/12 08:18:08;;;;;;;2.92;2.67;;;;;;;;;;7300664;19;140392;-79
2023/07/12 08:20:35;;;;;;;3.15;2.60;;;;;;;;;;7300200;19;141052;-80
2023/07/12 08:23:03;;;;;;;3.78;2.88;;;;;;;;;;7299040;19;140914;-79
2023/07/12 08:25:30;;;;;;;3.47;2.72;;;;;;;;;;7300929;19;140520;-79
2023/07/12 08:27:57;;;;;;;2.72;2.50;;;;;;;;;;7300737;19;140549;-79
2023/07/12 08:30:24;;;;;;;3.33;3.03;;;;;;;;;;7300244;19;140457;-79
2023/07/12 08:32:51;;;;;;;4.07;3.40;;;;;;;;;;7300837;19;141929;-79
2023/07/12 08:35:19;;;;;;;5.82;3.85;;;;;;;;;;7300571;19;140701;-80
2023/07/12 08:37:55;;;;;;;4.25;3.50;;;;;;;;;;7301474;19;141530;-80
2023/07/12 08:40:22;;;;;;;5.13;3.70;;;;;;;;;;7300513;19;141229;-79
2023/07/12 08:42:50;;;;;;;7.07;4.20;;;;;;;;;;7300638;19;143138;-80
2023/07/12 08:45:25;;;;;;;6.70;3.90;;;;;;;;;;7298898;19;140886;-81
2023/07/12 08:47:57;;;;;;;5.90;3.25;;;;;;;;;;7300653;19;140679;-79
2023/07/12 08:50:26;;;;;;;3.88;3.30;;;;;;;;;;7300528;19;141424;-79
2023/07/12 08:52:53;;;;;;;4.30;3.40;;;;;;;;;;7299491;19;141343;-78
2023/07/12 08:55:22;;;;;;;4.97;3.78;;;;;;;;;;7298246;19;140646;-78
2023/07/12 08:57:54;;;;;;;4.03;3.55;;;;;;;;;;7299729;19;140633;-80
2023/07/12 09:00:22;;;;;;;4.45;3.40;;;;;;;;;;7301601;19;141217;-78
2023/07/12 09:02:50;;;;;;;4.72;3.60;;;;;;;;;;7301107;19;142834;-78
2023/07/12 09:05:19;;;;;;;4.57;3.10;;;;;;;;;;7300440;19;140769;-78
2023/07/12 09:07:49;;;;;;;3.92;3.40;;;;;;;;;;7299206;19;140665;-78
2023/07/12 09:10:34;;;;;;;3.50;3.10;;;;;;;;;;7299980;19;140943;-78
2023/07/12 09:13:01;;;;;;;3.92;3.20;;;;;;;;;;7299746;19;141857;-79
2023/07/12 09:15:38;;;;;;;3.50;3.20;;;;;;;;;;7299320;19;141071;-78
2023/07/12 09:18:07;;;;;;;3.05;2.78;;;;;;;;;;7300202;19;140691;-79
2023/07/12 09:20:39;;;;;;;3.65;3.08;;;;;;;;;;7299753;19;141454;-79
2023/07/12 09:23:10;;;;;;;4.22;2.95;;;;;;;;;;7301532;19;140853;-81
2023/07/12 09:25:38;;;;;;;3.28;2.90;;;;;;;;;;7299613;19;140464;-79
2023/07/12 09:28:06;;;;;;;3.50;2.88;;;;;;;;;;7303836;19;140635;-79
2023/07/12 09:30:36;;;;;;;3.35;2.92;;;;;;;;;;7306127;19;140900;-79
2023/07/12 09:33:03;;;;;;;3.70;3.07;;;;;;;;;;7306721;19;142410;-85
2023/07/12 09:35:38;;;;;;;5.43;3.25;;;;;;;;;;7306702;19;140746;-82
2023/07/12 09:38:10;;;;;;;4.68;3.17;;;;;;;;;;7305900;19;140682;-84
2023/07/12 09:40:38;;;;;;;4.00;3.00;;;;;;;;;;7308333;19;142010;-85
2023/07/12 09:43:26;;;;;;;4.88;3.47;;;;;;;;;;7307103;19;142169;-83
2023/07/12 09:45:53;;;;;;;4.25;2.83;;;;;;;;;;7306889;19;140553;-85
2023/07/12 09:48:53;;;;;;;4.15;3.30;;;;;;;;;;7306260;19;140445;-85
2023/07/12 09:51:29;;;;;;;6.18;3.30;;;;;;;;;;7306056;19;140978;-89
2023/07/12 09:54:20;;;;;;;5.25;3.10;;;;;;;;;;7306767;19;141631;-85
2023/07/12 09:56:55;;;;;;;5.90;3.33;;;;;;;;;;7306757;19;140643;-87
2023/07/12 10:02:25;;;;;;;7.90;3.55;;;;;;;;;;7306978;19;140955;-84
2023/07/12 10:04:58;;;;;;;6.45;3.50;;;;;;;;;;7305042;19;142130;-85
2023/07/12 10:07:37;;;;;;;5.47;3.00;;;;;;;;;;7302952;19;140946;-86
2023/07/12 10:10:15;;;;;;;6.20;3.63;;;;;;;;;;7306737;19;140891;-85
2023/07/12 10:12:49;;;;;;;6.18;3.63;;;;;;;;;;7305022;19;141493;-80
2023/07/12 10:15:16;;;;;;;7.45;3.53;;;;;;;;;;7303414;19;142442;-80
2023/07/12 10:17:44;;;;;;;5.13;3.35;;;;;;;;;;7304164;19;140594;-80
2023/07/12 10:20:20;;;;;;;8.07;3.63;;;;;;;;;;7305230;19;140370;-77
2023/07/12 10:22:47;;;;;;;8.13;3.92;;;;;;;;;;7304551;19;141178;-77
2023/07/12 10:25:26;;;;;;;7.15;3.50;;;;;;;;;;7305185;19;140735;-78
2023/07/12 10:27:59;;;;;;;7.45;3.95;;;;;;;;;;7303856;19;140713;-77
2023/07/12 10:30:27;;;;;;;6.88;3.38;;;;;;;;;;7304053;19;140535;-76
2023/07/12 10:32:58;;;;;;;6.60;3.45;;;;;;;;;;7305054;19;141102;-78
2023/07/12 10:35:34;;;;;;;6.50;3.20;;;;;;;;;;7304770;19;142548;-78
2023/07/12 10:38:04;;;;;;;9.43;3.80;;;;;;;;;;7304047;19;140499;-76
2023/07/12 10:40:52;;;;;;;7.03;3.50;;;;;;;;;;7304757;19;140752;-77
2023/07/12 10:43:28;;;;;;;6.63;3.30;;;;;;;;;;7304827;19;140860;-78
2023/07/12 10:46:06;;;;;;;7.72;3.65;;;;;;;;;;7303816;19;142870;-80
2023/07/12 10:48:34;;;;;;;6.22;3.38;;;;;;;;;;7303809;19;140376;-78
2023/07/12 10:51:19;;;;;;;7.88;3.70;;;;;;;;;;7304846;19;140434;-78
2023/07/12 10:53:51;;;;;;;7.82;3.40;;;;;;;;;;7304302;19;141213;-77
2023/07/12 10:56:23;;;;;;;6.10;3.35;;;;;;;;;;7305136;19;141783;-76
2023/07/12 10:58:55;;;;;;;6.45;3.80;;;;;;;;;;7304222;19;140470;-76
2023/07/12 11:01:40;;;;;;;7.03;3.90;;;;;;;;;;7303560;19;140404;-76
2023/07/12 11:04:26;;;;;;;5.00;3.05;;;;;;;;;;7303130;19;140999;-77
2023/07/12 11:06:56;;;;;;;5.30;3.00;;;;;;;;;;7303463;19;140719;-75
2023/07/12 11:09:23;;;;;;;;;;;;;;;;;;7304415;19;140588;-77
2023/07/12 11:11:56;;;;;;;8.23;3.38;;;;;;;;;;7301830;19;144034;-75
2023/07/12 11:14:25;;;;;;;6.05;3.45;;;;;;;;;;7304270;19;141868;-74
2023/07/12 11:17:09;;;;;;;6.32;3.33;;;;;;;;;;7302055;19;141368;-75
2023/07/12 11:19:39;;;;;;;6.65;2.72;;;;;;;;;;7301990;19;140532;-76
2023/07/12 11:22:09;;;;;;;6.13;3.40;;;;;;;;;;7302212;19;140560;-77
2023/07/12 11:24:37;;;;;;;7.15;3.55;;;;;;;;;;7302170;19;141201;-75
2023/07/12 11:27:08;;;;;;;5.45;3.05;;;;;;;;;;7302905;19;142004;-75
2023/07/12 11:29:36;;;;;;;4.95;3.10;;;;;;;;;;7301128;19;140872;-78
2023/07/12 11:32:03;;;;;;;6.13;3.35;;;;;;;;;;7300696;19;140755;-77
2023/07/12 11:34:31;;;;;;;4.75;2.72;;;;;;;;;;7300764;19;141166;-76
2023/07/12 11:36:59;;;;;;;4.90;2.97;;;;;;;;;;7301961;19;141453;-76
2023/07/12 11:39:27;;;;;;;6.18;3.15;;;;;;;;;;7302855;19;140613;-77
2023/07/12 11:41:56;;;;;;;5.97;2.92;;;;;;;;;;7302297;19;141021;-76
2023/07/12 11:44:25;;;;;;;6.05;3.47;;;;;;;;;;7303188;19;141121;-77
2023/07/12 11:46:53;;;;;;;6.13;3.05;;;;;;;;;;7300745;19;141176;-76
2023/07/12 11:49:21;;;;;;;6.72;3.03;;;;;;;;;;7300428;19;140537;-76
2023/07/12 11:51:53;;;;;;;4.95;2.67;;;;;;;;;;7301801;19;140752;-74
2023/07/12 11:54:26;;;;;;;5.65;3.13;;;;;;;;;;7302770;19;141017;-76
2023/07/12 11:56:58;;;;;;;4.40;2.90;;;;;;;;;;7301363;19;141937;-74
2023/07/12 11:59:27;;;;;;;4.88;2.63;;;;;;;;;;7305569;19;140588;-74
2023/07/12 12:01:54;;;;;;;5.07;2.90;;;;;;;;;;7302111;19;140816;-76
2023/07/12 12:04:23;;;;;;;5.28;2.65;;;;;;;;;;7301769;19;140879;-76
2023/07/12 12:06:52;;;;;;;4.78;2.75;;;;;;;;;;7298051;19;142830;-76
2023/07/12 12:09:24;;;;;;;4.82;2.40;;;;;;;;;;7301993;19;140636;-76
2023/07/12 12:11:53;;;;;;;3.00;2.20;;;;;;;;;;7301883;19;140693;-75
2023/07/12 12:14:36;;;;;;;3.03;2.20;;;;;;;;;;7301360;19;140945;-76
2023/07/12 12:17:11;;;;;;;4.75;2.55;;;;;;;;;;7301364;19;142184;-76
2023/07/12 12:19:39;;;;;;;4.97;2.63;;;;;;;;;;7302434;19;140376;-75
2023/07/12 12:22:15;;;;;;;3.88;2.30;;;;;;;;;;7301702;19;140817;-76
2023/07/12 12:24:47;;;;;;;4.18;2.35;;;;;;;;;;7301659;19;140905;-76
2023/07/12 12:27:18;;;;;;;5.10;2.55;;;;;;;;;;7301218;19;141409;-76
2023/07/12 12:29:48;;;;;;;3.92;2.30;;;;;;;;;;7299569;19;140727;-76
2023/07/12 12:32:16;;;;;;;4.57;2.22;;;;;;;;;;7301377;19;140474;-77
2023/07/12 12:34:50;;;;;;;4.43;2.08;;;;;;;;;;7299196;19;140858;-76
2023/07/12 12:37:25;;;;;;;6.03;2.20;;;;;;;;;;7300760;19;142594;-76
2023/07/12 12:39:57;;;;;;;4.35;2.20;;;;;;;;;;7301575;19;140514;-76
2023/07/12 12:42:26;;;;;;;4.50;2.10;;;;;;;;;;7301213;19;140780;-76
2023/07/12 12:44:57;;;;;;;3.85;2.00;;;;;;;;;;7299020;19;140880;-75
2023/07/12 12:47:30;;;;;;;4.05;2.00;;;;;;;;;;7298650;19;142575;-75
2023/07/12 12:49:58;;;;;;;3.67;2.00;;;;;;;;;;7300867;19;140445;-75
2023/07/12 12:52:28;;;;;;;;;;;;;;;;;;7301684;19;140609;-75
2023/07/12 12:55:03;;;;;;;3.92;2.13;;;;;;;;;;7300419;19;140457;-75
2023/07/12 12:57:40;;;;;;;4.57;1.88;;;;;;;;;;7300000;19;140676;-75
2023/07/12 13:00:13;;;;;;;4.30;1.95;;;;;;;;;;7301489;19;140598;-75
2023/07/12 13:02:43;;;;;;;3.83;1.85;;;;;;;;;;7304581;19;140465;-75
2023/07/12 13:05:14;;;;;;;3.55;1.80;;;;;;;;;;7307235;19;141230;-75
2023/07/12 13:08:00;;;;;;;2.90;1.98;;;;;;;;;;7307219;19;140716;-75
2023/07/12 13:10:30;;;;;;;3.67;2.03;;;;;;;;;;7310742;19;140595;-74
2023/07/12 13:13:00;;;;;;;4.38;2.08;;;;;;;;;;7308623;19;140513;-76
2023/07/12 13:15:30;;;;;;;2.63;1.73;;;;;;;;;;7306534;19;142760;-75
2023/07/12 13:18:00;;;;;;;3.28;1.77;;;;;;;;;;7306206;19;143210;-75
2023/07/12 13:20:47;;;;;;;2.53;2.00;;;;;;;;;;7308201;19;140431;-75
2023/07/12 13:23:15;;;;;;;4.57;2.20;;;;;;;;;;7306544;19;140465;-75
2023/07/12 13:25:50;;;;;;;3.42;1.90;;;;;;;;;;7306990;19;141759;-77
2023/07/12 13:28:18;;;;;;;4.50;2.10;;;;;;;;;;7307755;19;142130;-75
2023/07/12 13:30:45;;;;;;;2.78;2.00;;;;;;;;;;7307162;19;140506;-74
2023/07/12 13:33:16;;;;;;;3.47;1.92;;;;;;;;;;7307055;19;140421;-77
2023/07/12 13:35:44;;;;;;;3.88;1.95;;;;;;;;;;7306737;19;140454;-77
2023/07/12 13:38:14;;;;;;;;;;;;;;;;;;7307690;19;141697;-76
2023/07/12 13:40:44;;;;;;;3.80;2.40;;;;;;;;;;7307953;19;140550;-85
2023/07/12 13:43:31;;;;;;;5.80;2.13;;;;;;;;;;7307533;19;140633;-75
2023/07/12 13:46:01;;;;;;;5.00;2.30;;;;;;;;;;7307515;19;141110;-74
2023/07/12 13:48:29;;;;;;;6.57;1.90;;;;;;;;;;7306368;19;141430;-84
2023/07/12 13:50:56;;;;;;;4.65;1.95;;;;;;;;;;7309260;19;140599;-81
2023/07/12 13:53:29;;;;;;;7.10;2.58;;;;;;;;;;7308538;19;140699;-81
2023/07/12 13:55:56;;;;;;;7.97;3.03;;;;;;;;;;7304678;19;141639;-80
2023/07/12 13:58:26;;;;;;;3.63;2.00;;;;;;;;;;7307555;19;141023;-75
2023/07/12 14:00:58;;;;;;;5.90;1.88;;;;;;;;;;7306363;19;140410;-75
2023/07/12 14:03:28;;;;;;;2.78;1.67;;;;;;;;;;7307204;19;140722;-77
2023/07/12 14:06:04;;;;;;;4.97;2.10;;;;;;;;;;7306268;19;141008;-77
2023/07/12 14:08:31;;;;;;;4.05;2.00;;;;;;;;;;7306181;19;143477;-76
2023/07/12 14:11:04;;;;;;;4.78;1.98;;;;;;;;;;7306969;19;140708;-76
2023/07/12 14:13:32;;;;;;;3.78;2.00;;;;;;;;;;7303299;19;140651;-77
2023/07/12 14:15:59;;;;;;;5.18;1.83;;;;;;;;;;7305234;19;140961;-75
2023/07/12 14:18:27;;;;;;;3.72;1.77;;;;;;;;;;7303070;19;140766;-76
2023/07/12 14:20:55;;;;;;;3.53;1.65;;;;;;;;;;7304699;19;140775;-76
2023/07/12 14:23:22;;;;;;;5.32;1.92;;;;;;;;;;7305724;19;142391;-77
2023/07/12 14:25:49;;;;;;;4.35;1.65;;;;;;;;;;7305754;19;141593;-77
2023/07/12 14:28:17;;;;;;;5.47;2.00;;;;;;;;;;7304749;19;141965;-75
2023/07/12 14:30:47;;;;;;;2.80;1.80;;;;;;;;;;7305250;19;140479;-76
2023/07/12 14:33:34;;;;;;;3.05;1.65;;;;;;;;;;7304994;19;140572;-73
2023/07/12 14:36:02;;;;;;;6.60;1.88;;;;;;;;;;7304365;19;140502;-73
2023/07/12 14:38:29;;;;;;;4.05;2.10;;;;;;;;;;7303772;19;141883;-74
2023/07/12 14:40:56;;;;;;;4.22;1.73;;;;;;;;;;7305414;19;140374;-77
2023/07/12 14:43:23;;;;;;;4.32;1.83;;;;;;;;;;7304829;19;140821;-75
2023/07/12 14:45:52;;;;;;;5.70;2.40;;;;;;;;;;7304663;19;141676;-78